Time;durP1;ratioP1;P1;durP2;ratioP2;P2;SDS_P1;SDS_P2;PMS_P1;PMS_P2;Temp;Humidity;BMP_temperature;BMP_pressure;BME280_temperature;BME280_humidity;BME280_pressure;Samples;Min_cycle;Max_cycle;Signal;HPM_P1;HPM_P2
2022/03/27 00:01:32;;;;;;;20.00;10.63;;;6.30;99.90;;;;;;7237755;32;20108;-60
2022/03/27 00:05:34;;;;;;;21.05;10.90;;;6.30;99.90;;;;;;7231301;32;20116;-60
2022/03/27 00:09:36;;;;;;;19.12;11.30;;;6.40;99.90;;;;;;7235879;32;20127;-59
2022/03/27 00:13:38;;;;;;;15.93;10.52;;;6.40;99.90;;;;;;7238238;32;20594;-58
2022/03/27 00:17:39;;;;;;;17.33;10.90;;;6.40;99.90;;;;;;7238687;32;20247;-59
2022/03/27 00:21:42;;;;;;;16.08;10.00;;;6.40;99.90;;;;;;7238106;32;20108;-59
2022/03/27 00:25:45;;;;;;;21.23;10.85;;;6.30;99.90;;;;;;7236428;32;20113;-58
2022/03/27 00:29:47;;;;;;;19.80;12.07;;;6.40;99.90;;;;;;7236210;32;20301;-59
2022/03/27 00:33:48;;;;;;;15.55;11.05;;;6.40;99.90;;;;;;7242981;32;20113;-60
2022/03/27 00:37:52;;;;;;;18.90;11.82;;;6.30;99.90;;;;;;7227413;32;20183;-60
2022/03/27 00:41:55;;;;;;;19.77;11.43;;;6.20;99.90;;;;;;7228604;32;20168;-59
2022/03/27 00:45:57;;;;;;;18.80;10.68;;;6.10;99.90;;;;;;7229289;32;20762;-60
2022/03/27 00:49:59;;;;;;;18.40;10.77;;;6.10;99.90;;;;;;7238837;32;20269;-61
2022/03/27 00:54:00;;;;;;;17.67;10.35;;;6.00;99.90;;;;;;7237600;32;20468;-61
2022/03/27 00:58:03;;;;;;;17.35;9.68;;;6.00;99.90;;;;;;7237528;32;20121;-61
2022/03/27 01:02:05;;;;;;;16.80;10.55;;;5.90;99.90;;;;;;7241649;32;20839;-61
2022/03/27 01:06:23;;;;;;;16.35;10.45;;;5.90;99.90;;;;;;7232636;32;20476;-59
2022/03/27 01:10:25;;;;;;;16.95;10.45;;;5.80;99.90;;;;;;7238170;32;20391;-58
2022/03/27 01:14:31;;;;;;;15.45;10.30;;;5.80;99.90;;;;;;7241570;32;20131;-60
2022/03/27 01:18:33;;;;;;;16.60;10.25;;;5.70;99.90;;;;;;7237835;32;20131;-60
2022/03/27 01:22:35;;;;;;;13.93;9.52;;;5.70;99.90;;;;;;7241004;32;20641;-58
2022/03/27 01:26:39;;;;;;;18.67;9.60;;;5.60;99.90;;;;;;7240728;32;20136;-59
2022/03/27 01:30:41;;;;;;;16.33;9.80;;;5.50;99.90;;;;;;7244321;32;20116;-59
2022/03/27 01:34:44;;;;;;;14.00;9.60;;;5.50;99.90;;;;;;7240983;32;20150;-59
2022/03/27 01:38:46;;;;;;;14.30;8.82;;;5.50;99.90;;;;;;7243197;32;20373;-60
2022/03/27 01:42:49;;;;;;;15.23;8.35;;;5.50;99.90;;;;;;7242872;32;20131;-58
2022/03/27 01:46:52;;;;;;;15.30;9.35;;;5.60;99.90;;;;;;7245145;32;20425;-60
2022/03/27 01:50:58;;;;;;;15.77;9.43;;;5.70;99.90;;;;;;7243330;32;20154;-59
2022/03/27 01:55:00;;;;;;;15.07;8.73;;;5.70;99.90;;;;;;7239570;32;20246;-59
2022/03/27 01:59:04;;;;;;;15.52;9.15;;;5.60;99.90;;;;;;7244173;32;20479;-59
2022/03/27 02:03:06;;;;;;;16.65;8.88;;;5.50;99.90;;;;;;7243538;32;20595;-59
2022/03/27 02:07:08;;;;;;;15.88;8.80;;;5.50;99.90;;;;;;7245312;32;20150;-59
2022/03/27 02:11:10;;;;;;;13.70;8.60;;;5.60;99.90;;;;;;7246419;32;20483;-59
2022/03/27 02:15:13;;;;;;;12.70;8.73;;;5.60;99.90;;;;;;7238085;32;20236;-60
2022/03/27 02:19:14;;;;;;;16.42;8.63;;;5.50;99.90;;;;;;7245094;32;20485;-60
2022/03/27 02:23:16;;;;;;;13.18;8.50;;;5.50;99.90;;;;;;7243908;32;20247;-59
2022/03/27 02:27:17;;;;;;;15.93;9.13;;;5.50;99.90;;;;;;7243934;32;20113;-59
2022/03/27 02:31:19;;;;;;;13.60;9.05;;;5.50;99.90;;;;;;7245683;32;20162;-59
2022/03/27 02:35:21;;;;;;;15.55;9.32;;;5.40;99.90;;;;;;7235455;32;20262;-59
2022/03/27 02:39:23;;;;;;;15.35;8.23;;;5.50;99.90;;;;;;7241779;32;20449;-59
2022/03/27 02:43:25;;;;;;;15.95;9.85;;;5.60;99.90;;;;;;7243951;32;20231;-60
2022/03/27 02:47:26;;;;;;;15.48;9.40;;;5.80;99.90;;;;;;7241950;32;20116;-60
2022/03/27 02:51:28;;;;;;;16.27;9.73;;;5.80;99.90;;;;;;7238919;32;20148;-60
2022/03/27 02:55:30;;;;;;;15.13;9.77;;;5.90;99.90;;;;;;7240322;32;20144;-60
2022/03/27 02:59:32;;;;;;;19.37;11.07;;;6.10;99.90;;;;;;7239845;32;20527;-60
2022/03/27 03:03:33;;;;;;;15.52;10.45;;;6.20;99.90;;;;;;7235600;32;20563;-59
2022/03/27 03:07:41;;;;;;;18.52;10.98;;;6.20;99.90;;;;;;7231748;32;20199;-59
2022/03/27 03:11:44;;;;;;;14.85;9.88;;;6.20;99.90;;;;;;7234411;32;20131;-59
2022/03/27 03:15:45;;;;;;;18.65;10.38;;;6.20;99.90;;;;;;7237683;32;20493;-59
2022/03/27 03:19:47;;;;;;;16.50;10.77;;;6.20;99.90;;;;;;7235822;32;20589;-59
2022/03/27 03:23:49;;;;;;;17.33;10.40;;;6.10;99.90;;;;;;7236842;32;20218;-59
2022/03/27 03:27:51;;;;;;;14.98;9.95;;;6.10;99.90;;;;;;7241076;32;20148;-59
2022/03/27 03:31:53;;;;;;;15.93;10.18;;;6.00;99.90;;;;;;7242808;32;20112;-60
2022/03/27 03:35:54;;;;;;;18.15;10.77;;;5.90;99.90;;;;;;7242409;32;20132;-59
2022/03/27 03:39:56;;;;;;;18.87;12.15;;;6.00;99.90;;;;;;7242525;32;20105;-59
2022/03/27 03:43:58;;;;;;;23.08;11.68;;;5.90;99.90;;;;;;7241243;32;20135;-59
2022/03/27 03:48:00;;;;;;;18.73;12.13;;;6.00;99.90;;;;;;7241736;32;20514;-59
2022/03/27 03:52:01;;;;;;;20.95;13.62;;;6.00;99.90;;;;;;7238610;32;20213;-59
2022/03/27 03:56:05;;;;;;;20.25;13.40;;;6.00;99.90;;;;;;7236078;32;20202;-60
2022/03/27 04:00:07;;;;;;;18.92;13.02;;;6.10;99.90;;;;;;7234711;32;20227;-59
2022/03/27 04:04:09;;;;;;;22.65;14.23;;;6.10;99.90;;;;;;7230844;32;20190;-58
2022/03/27 04:08:11;;;;;;;47.50;23.12;;;6.10;99.90;;;;;;7236661;32;20262;-59
2022/03/27 04:12:12;;;;;;;49.17;23.55;;;6.40;99.90;;;;;;7235314;32;20139;-59
2022/03/27 04:16:14;;;;;;;57.20;27.50;;;6.70;99.90;;;;;;7236583;32;20116;-60
2022/03/27 04:20:17;;;;;;;55.17;26.83;;;7.00;99.90;;;;;;7236576;32;20294;-60
2022/03/27 04:24:19;;;;;;;65.75;29.37;;;7.20;99.90;;;;;;7244553;32;20128;-59
2022/03/27 04:28:21;;;;;;;74.28;32.67;;;7.40;99.90;;;;;;7237850;32;20131;-58
2022/03/27 04:32:23;;;;;;;66.87;31.52;;;7.50;99.90;;;;;;7242738;32;20120;-61
2022/03/27 04:36:25;;;;;;;67.03;31.35;;;7.60;99.90;;;;;;7242402;32;20262;-60
2022/03/27 04:40:27;;;;;;;65.55;30.80;;;7.70;99.90;;;;;;7238303;32;20112;-59
2022/03/27 04:44:28;;;;;;;69.50;32.60;;;7.80;99.90;;;;;;7233087;32;20142;-59
2022/03/27 04:48:30;;;;;;;73.28;32.85;;;7.80;99.90;;;;;;7239262;32;20233;-59
2022/03/27 04:52:32;;;;;;;76.80;34.67;;;7.80;99.90;;;;;;7237481;32;20134;-59
2022/03/27 04:56:33;;;;;;;77.30;33.88;;;7.90;99.90;;;;;;7241122;32;20131;-60
2022/03/27 05:00:36;;;;;;;78.30;33.15;;;7.90;99.90;;;;;;7239077;32;20914;-59
2022/03/27 05:04:40;;;;;;;73.55;32.97;;;7.90;99.90;;;;;;7241404;32;20345;-60
2022/03/27 05:08:44;;;;;;;67.82;32.40;;;7.90;99.90;;;;;;7238811;32;20196;-57
2022/03/27 05:12:46;;;;;;;71.55;30.98;;;8.00;99.90;;;;;;7238069;32;20101;-57
2022/03/27 05:16:47;;;;;;;57.83;29.85;;;8.00;99.90;;;;;;7241131;32;20109;-58
2022/03/27 05:20:50;;;;;;;57.22;30.25;;;8.00;99.90;;;;;;7241604;32;20478;-58
2022/03/27 05:24:52;;;;;;;59.88;29.98;;;8.00;99.90;;;;;;7237307;32;20108;-58
2022/03/27 05:28:54;;;;;;;54.33;29.20;;;8.00;99.90;;;;;;7238483;32;20591;-58
2022/03/27 05:32:56;;;;;;;52.95;28.08;;;8.10;99.90;;;;;;7234960;32;20250;-58
2022/03/27 05:36:58;;;;;;;50.22;27.37;;;8.10;99.90;;;;;;7240337;32;20147;-64
2022/03/27 05:41:00;;;;;;;55.50;28.62;;;8.10;99.90;;;;;;7240245;32;20238;-59
2022/03/27 05:45:06;;;;;;;53.20;29.02;;;8.10;99.90;;;;;;7247074;32;20230;-59
2022/03/27 05:49:08;;;;;;;54.10;29.12;;;8.10;99.90;;;;;;7242542;32;20407;-59
2022/03/27 05:53:10;;;;;;;47.38;28.65;;;8.10;99.90;;;;;;7243651;32;20215;-59
2022/03/27 05:57:12;;;;;;;55.60;30.50;;;8.10;99.90;;;;;;7240845;32;20202;-58
2022/03/27 06:01:14;;;;;;;57.22;30.40;;;8.20;99.90;;;;;;7241115;32;20112;-59
2022/03/27 06:05:24;;;;;;;56.13;31.30;;;8.20;99.90;;;;;;7246663;32;20207;-58
2022/03/27 06:09:25;;;;;;;63.53;33.00;;;8.20;99.90;;;;;;7240042;32;20204;-59
2022/03/27 06:13:27;;;;;;;66.75;34.55;;;8.30;99.90;;;;;;7244341;32;20190;-59
2022/03/27 06:17:29;;;;;;;76.30;35.05;;;8.30;99.90;;;;;;7251301;32;20414;-58
2022/03/27 06:21:30;;;;;;;71.53;34.78;;;8.30;99.90;;;;;;7241003;32;20271;-58
2022/03/27 06:25:34;;;;;;;70.20;33.30;;;8.40;99.90;;;;;;7248316;32;20183;-59
2022/03/27 06:29:35;;;;;;;75.87;35.85;;;8.40;99.90;;;;;;7245070;32;20532;-58
2022/03/27 06:33:37;;;;;;;70.53;35.78;;;8.50;99.90;;;;;;7238146;32;20693;-59
2022/03/27 06:37:39;;;;;;;73.93;35.38;;;8.50;99.90;;;;;;7241179;32;20108;-60
2022/03/27 06:41:41;;;;;;;73.12;36.45;;;8.60;99.90;;;;;;7244870;32;20210;-61
2022/03/27 06:45:43;;;;;;;71.80;36.45;;;8.60;99.90;;;;;;7241279;32;20171;-60
2022/03/27 06:49:46;;;;;;;69.35;35.40;;;8.70;99.90;;;;;;7250465;32;20209;-59
2022/03/27 06:53:47;;;;;;;70.57;36.10;;;8.80;99.90;;;;;;7250478;32;20120;-61
2022/03/27 06:57:49;;;;;;;79.80;35.90;;;8.80;99.90;;;;;;7250499;32;20235;-60
2022/03/27 07:06:14;;;;;;;74.90;35.60;;;9.00;99.90;;;;;;7241489;32;20254;-59
2022/03/27 07:10:16;;;;;;;71.80;35.78;;;9.00;99.90;;;;;;7241314;32;20136;-61
2022/03/27 07:14:18;;;;;;;71.05;35.15;;;9.00;99.90;;;;;;7242919;32;20203;-61
2022/03/27 07:18:20;;;;;;;68.53;36.28;;;9.00;99.90;;;;;;7239728;32;20105;-59
2022/03/27 07:22:22;;;;;;;69.68;35.42;;;9.10;99.90;;;;;;7244725;32;20267;-60
2022/03/27 07:26:24;;;;;;;69.07;35.08;;;9.10;99.90;;;;;;7241164;32;20319;-60
2022/03/27 07:30:26;;;;;;;69.78;36.67;;;9.30;99.90;;;;;;7241169;32;20280;-59
2022/03/27 07:34:28;;;;;;;62.88;35.00;;;9.30;99.90;;;;;;7241290;32;20105;-59
2022/03/27 07:38:30;;;;;;;63.53;35.42;;;9.40;99.90;;;;;;7242075;32;20117;-60
2022/03/27 07:42:36;;;;;;;62.80;34.85;;;9.60;99.90;;;;;;7240483;32;20817;-60
2022/03/27 07:46:38;;;;;;;62.15;33.60;;;9.70;99.90;;;;;;7244076;32;20371;-60
2022/03/27 07:50:39;;;;;;;57.10;32.13;;;9.70;99.90;;;;;;7244298;32;20116;-61
2022/03/27 07:54:41;;;;;;;53.95;31.95;;;9.70;99.90;;;;;;7243985;32;20235;-59
2022/03/27 07:58:43;;;;;;;55.50;33.80;;;9.70;99.90;;;;;;7247389;32;20123;-59
2022/03/27 08:02:46;;;;;;;50.58;28.58;;;9.80;99.90;;;;;;7241985;32;20108;-60
2022/03/27 08:06:47;;;;;;;58.33;31.52;;;10.00;99.90;;;;;;7242366;32;20270;-59
2022/03/27 08:10:49;;;;;;;51.40;29.58;;;10.00;99.90;;;;;;7241419;32;20224;-60
2022/03/27 08:14:51;;;;;;;54.40;28.33;;;10.30;99.90;;;;;;7243091;32;20131;-59
2022/03/27 08:18:52;;;;;;;46.22;26.48;;;10.40;99.90;;;;;;7242911;32;20115;-59
2022/03/27 08:22:55;;;;;;;52.17;30.08;;;10.20;99.90;;;;;;7248693;32;20250;-57
2022/03/27 08:26:57;;;;;;;49.60;28.70;;;10.30;99.90;;;;;;7236507;32;20574;-57
2022/03/27 08:30:59;;;;;;;46.20;26.42;;;10.60;99.90;;;;;;7240171;32;20449;-59
2022/03/27 08:35:01;;;;;;;40.63;25.50;;;10.80;99.90;;;;;;7243796;32;20820;-60
2022/03/27 08:39:02;;;;;;;41.05;24.87;;;10.70;99.90;;;;;;7236988;32;20132;-59
2022/03/27 08:43:15;;;;;;;38.33;23.02;;;11.00;99.90;;;;;;7243003;32;20112;-59
2022/03/27 08:47:21;;;;;;;45.35;27.62;;;11.10;99.90;;;;;;7241952;32;20104;-60
2022/03/27 08:51:33;;;;;;;39.17;23.87;;;11.40;99.90;;;;;;7233204;32;20536;-58
2022/03/27 08:55:38;;;;;;;34.35;21.15;;;11.50;99.90;;;;;;7243566;32;20597;-59
2022/03/27 08:59:42;;;;;;;49.30;26.77;;;11.50;99.90;;;;;;7244030;32;20138;-56
2022/03/27 09:03:44;;;;;;;37.50;23.45;;;11.40;99.90;;;;;;7242644;32;20101;-61
2022/03/27 09:07:47;;;;;;;32.20;19.27;;;11.50;99.90;;;;;;7240052;32;20175;-60
2022/03/27 09:11:53;;;;;;;40.10;22.13;;;11.50;99.90;;;;;;7236810;32;20737;-61
2022/03/27 09:16:04;;;;;;;39.15;22.95;;;11.70;99.90;;;;;;7241854;32;20293;-60
2022/03/27 09:20:06;;;;;;;33.42;20.45;;;11.70;99.90;;;;;;7241872;32;20124;-60
2022/03/27 09:24:09;;;;;;;34.47;22.08;;;11.90;99.90;;;;;;7248379;32;20933;-60
2022/03/27 09:28:22;;;;;;;42.15;23.40;;;11.90;99.90;;;;;;7238769;32;20132;-60
2022/03/27 09:32:31;;;;;;;32.88;20.33;;;12.20;99.90;;;;;;7240292;32;20130;-61
2022/03/27 09:36:40;;;;;;;38.55;22.52;;;12.50;99.90;;;;;;7245561;32;20111;-61
2022/03/27 09:40:42;;;;;;;36.38;24.27;;;12.90;99.90;;;;;;7246296;32;20126;-60
2022/03/27 09:44:44;;;;;;;30.88;20.42;;;13.30;99.90;;;;;;7246501;32;20116;-61
2022/03/27 09:48:56;;;;;;;28.52;20.37;;;13.30;99.90;;;;;;7248037;32;20128;-60
2022/03/27 09:53:25;;;;;;;29.35;20.83;;;13.70;99.90;;;;;;7240344;32;20105;-60
2022/03/27 09:57:39;;;;;;;26.75;19.50;;;14.60;99.90;;;;;;7245050;32;20535;-59
2022/03/27 10:01:41;;;;;;;26.25;18.83;;;14.50;99.90;;;;;;7247127;32;20203;-59
2022/03/27 10:05:43;;;;;;;23.15;17.87;;;14.30;99.90;;;;;;7249618;32;20293;-59
2022/03/27 10:09:44;;;;;;;24.40;17.20;;;15.30;99.90;;;;;;7246586;32;20135;-59
2022/03/27 10:13:47;;;;;;;23.77;18.15;;;16.10;99.90;;;;;;7247444;32;20115;-60
2022/03/27 10:17:55;;;;;;;22.87;17.73;;;17.30;99.90;;;;;;7244850;32;20221;-60
2022/03/27 10:21:58;;;;;;;26.52;20.00;;;17.00;99.90;;;;;;7241346;32;20255;-59
2022/03/27 10:26:03;;;;;;;24.40;17.58;;;16.80;99.90;;;;;;7245020;32;20124;-60
2022/03/27 10:30:12;;;;;;;29.02;21.30;;;17.30;99.90;;;;;;7246193;32;20104;-59
2022/03/27 10:34:14;;;;;;;23.80;17.60;;;17.30;99.90;;;;;;7243901;32;20509;-60
2022/03/27 10:38:38;;;;;;;25.98;20.23;;;18.20;99.90;;;;;;7249754;32;20135;-59
2022/03/27 10:42:51;;;;;;;25.45;18.55;;;18.30;99.90;;;;;;7246105;32;20180;-61
2022/03/27 10:47:14;;;;;;;27.23;20.60;;;18.40;99.90;;;;;;7242621;32;20134;-61
2022/03/27 10:51:25;;;;;;;26.37;19.23;;;18.10;99.90;;;;;;7243886;32;20127;-61
2022/03/27 10:55:41;;;;;;;26.50;20.00;;;17.80;99.90;;;;;;7249516;32;20156;-58
2022/03/27 10:59:43;;;;;;;26.45;19.12;;;17.80;99.90;;;;;;7246554;32;20159;-60
2022/03/27 11:03:51;;;;;;;27.98;20.08;;;17.30;99.90;;;;;;7241933;32;20100;-60
2022/03/27 11:08:16;;;;;;;26.17;19.70;;;17.60;99.90;;;;;;7243331;32;20183;-60
2022/03/27 11:12:30;;;;;;;28.60;20.37;;;17.00;99.90;;;;;;7246975;32;20109;-60
2022/03/27 11:16:40;;;;;;;31.92;23.23;;;16.60;99.90;;;;;;7240897;32;20199;-60
2022/03/27 11:20:46;;;;;;;32.92;22.45;;;16.70;99.90;;;;;;7245491;32;20222;-59
2022/03/27 11:24:47;;;;;;;28.90;21.83;;;16.90;99.90;;;;;;7244100;32;20131;-63
2022/03/27 11:28:56;;;;;;;29.20;20.35;;;15.70;99.90;;;;;;7242935;32;20212;-60
2022/03/27 11:33:21;;;;;;;26.67;19.33;;;15.40;99.90;;;;;;7243348;32;20535;-59
2022/03/27 11:37:25;;;;;;;28.60;19.73;;;15.00;99.90;;;;;;7230793;32;20924;-61
2022/03/27 11:41:45;;;;;;;29.27;20.37;;;15.30;99.90;;;;;;7242412;32;20140;-60
2022/03/27 11:45:49;;;;;;;31.10;18.27;;;15.30;99.90;;;;;;7242008;32;20599;-62
2022/03/27 11:49:52;;;;;;;34.22;21.10;;;15.90;99.90;;;;;;7243034;32;20112;-57
2022/03/27 11:53:55;;;;;;;26.75;19.45;;;16.60;99.90;;;;;;7244725;32;20123;-56
2022/03/27 11:57:59;;;;;;;26.00;18.10;;;17.20;99.90;;;;;;7236025;32;20116;-57
2022/03/27 12:02:03;;;;;;;27.52;20.37;;;17.30;99.90;;;;;;7242626;32;20127;-57
2022/03/27 12:06:10;;;;;;;27.33;20.58;;;17.30;99.90;;;;;;7238147;32;20112;-63
2022/03/27 12:10:11;;;;;;;25.67;19.25;;;17.60;99.90;;;;;;7235820;32;20203;-61
2022/03/27 12:14:13;;;;;;;25.08;19.42;;;17.50;99.90;;;;;;7240985;32;20108;-59
2022/03/27 12:18:28;;;;;;;22.62;17.55;;;17.20;99.90;;;;;;7241670;32;20204;-60
2022/03/27 12:22:41;;;;;;;23.30;18.25;;;17.50;99.90;;;;;;7240640;32;20126;-60
2022/03/27 12:31:03;;;;;;;25.75;19.50;;;17.70;99.90;;;;;;7237934;32;20230;-60
2022/03/27 12:35:06;;;;;;;25.30;18.85;;;17.80;99.90;;;;;;7243280;32;20135;-60
2022/03/27 12:39:13;;;;;;;19.40;15.80;;;17.50;99.90;;;;;;7241228;32;20707;-60
2022/03/27 12:43:15;;;;;;;19.77;14.80;;;17.30;99.90;;;;;;7242149;32;20492;-61
2022/03/27 12:47:18;;;;;;;15.60;11.77;;;16.90;99.90;;;;;;7237661;32;20131;-60
2022/03/27 12:51:19;;;;;;;20.33;14.52;;;17.00;99.90;;;;;;7242186;32;20746;-58
2022/03/27 12:55:25;;;;;;;20.50;15.10;;;17.00;99.90;;;;;;7239649;32;20116;-57
2022/03/27 12:59:27;;;;;;;17.55;13.43;;;16.90;99.90;;;;;;7243055;32;20489;-61
2022/03/27 13:03:29;;;;;;;15.23;11.52;;;16.70;99.90;;;;;;7235144;32;20579;-62
2022/03/27 13:08:03;;;;;;;14.15;11.98;;;16.60;99.90;;;;;;7240482;32;20140;-58
2022/03/27 13:12:12;;;;;;;14.52;11.43;;;16.50;99.90;;;;;;7205604;32;20217;-59
2022/03/27 13:16:43;;;;;;;16.83;13.15;;;16.60;99.90;;;;;;7240245;32;20257;-60
2022/03/27 13:20:46;;;;;;;15.38;9.90;;;17.00;99.90;;;;;;7236747;32;20207;-58
2022/03/27 13:24:52;;;;;;;16.15;12.27;;;17.10;99.90;;;;;;7238671;32;20112;-61
2022/03/27 13:28:54;;;;;;;19.23;13.67;;;16.90;99.90;;;;;;7239499;32;20831;-61
2022/03/27 13:32:58;;;;;;;15.65;13.27;;;17.20;99.90;;;;;;7240783;32;20998;-58
2022/03/27 13:36:59;;;;;;;17.27;13.80;;;18.10;99.90;;;;;;7234356;32;20134;-62
2022/03/27 13:45:21;;;;;;;12.93;10.48;;;17.60;99.90;;;;;;7241478;32;20188;-62
2022/03/27 13:49:24;;;;;;;12.85;9.30;;;17.60;99.90;;;;;;7242055;32;20135;-60
2022/03/27 13:53:25;;;;;;;12.27;10.25;;;17.60;99.90;;;;;;7248252;32;20135;-62
2022/03/27 13:57:27;;;;;;;16.35;11.50;;;17.50;99.90;;;;;;7244322;32;20219;-61
2022/03/27 14:01:31;;;;;;;13.73;11.02;;;17.40;99.90;;;;;;7241784;32;20109;-60
2022/03/27 14:05:33;;;;;;;13.75;11.20;;;17.40;99.90;;;;;;7240790;32;20844;-61
2022/03/27 14:09:35;;;;;;;15.15;12.32;;;17.60;99.90;;;;;;7243610;32;20101;-60
2022/03/27 14:13:37;;;;;;;13.65;11.02;;;17.70;99.90;;;;;;7241569;32;20104;-60
2022/03/27 14:17:39;;;;;;;13.95;11.30;;;17.70;99.90;;;;;;7242941;32;20125;-60
2022/03/27 14:21:40;;;;;;;13.95;11.32;;;18.20;99.90;;;;;;7243363;32;20334;-60
2022/03/27 14:25:43;;;;;;;14.75;11.20;;;18.60;99.90;;;;;;7233028;32;20207;-59
2022/03/27 14:29:45;;;;;;;14.43;11.55;;;19.00;99.60;;;;;;7246278;32;20112;-60
2022/03/27 14:33:47;;;;;;;12.95;10.05;;;19.10;96.60;;;;;;7244849;32;20211;-62
2022/03/27 14:37:49;;;;;;;11.52;9.80;;;19.20;96.10;;;;;;7247225;32;20270;-58
2022/03/27 14:41:51;;;;;;;13.27;9.88;;;19.70;93.80;;;;;;7243451;32;20117;-59
2022/03/27 14:45:54;;;;;;;13.43;8.98;;;19.80;92.90;;;;;;7244166;32;20686;-59
2022/03/27 14:49:55;;;;;;;13.02;9.48;;;18.90;91.90;;;;;;7244382;32;20168;-61
2022/03/27 14:58:18;;;;;;;12.30;10.10;;;17.60;97.20;;;;;;7248066;32;20472;-61
2022/03/27 15:02:20;;;;;;;15.73;9.93;;;17.40;99.00;;;;;;7244047;32;20112;-61
2022/03/27 15:06:22;;;;;;;13.10;9.73;;;17.30;99.60;;;;;;7243877;32;20117;-63
2022/03/27 15:10:24;;;;;;;11.60;8.95;;;17.30;99.90;;;;;;7244450;32;20195;-62
2022/03/27 15:14:25;;;;;;;11.60;9.05;;;17.20;99.90;;;;;;7246061;32;20147;-60
2022/03/27 15:18:27;;;;;;;9.73;7.78;;;17.00;99.90;;;;;;7248044;32;20354;-60
2022/03/27 15:22:29;;;;;;;10.13;7.78;;;16.90;99.90;;;;;;7245111;32;20485;-59
2022/03/27 15:26:31;;;;;;;8.55;7.15;;;16.90;99.90;;;;;;7247205;32;20307;-60
2022/03/27 15:30:33;;;;;;;9.35;7.15;;;16.90;99.90;;;;;;7245652;32;20109;-60
2022/03/27 15:34:35;;;;;;;11.12;7.82;;;16.80;99.90;;;;;;7245287;32;20468;-61
2022/03/27 15:38:36;;;;;;;10.75;7.55;;;16.90;99.90;;;;;;7245514;32;20602;-59
2022/03/27 15:42:40;;;;;;;9.02;6.75;;;16.50;99.90;;;;;;7244896;32;20112;-59
2022/03/27 15:46:42;;;;;;;8.20;6.40;;;16.50;99.90;;;;;;7243620;32;20163;-60
2022/03/27 15:50:44;;;;;;;12.50;7.82;;;16.40;99.90;;;;;;7244592;32;20153;-59
2022/03/27 15:54:46;;;;;;;8.50;6.47;;;16.50;99.90;;;;;;7238945;32;20140;-61
2022/03/27 15:58:47;;;;;;;9.73;6.60;;;16.50;99.90;;;;;;7246841;32;20214;-60
2022/03/27 16:02:49;;;;;;;8.85;5.87;;;16.40;99.90;;;;;;7240157;32;20231;-59
2022/03/27 16:06:51;;;;;;;7.68;6.18;;;16.40;99.90;;;;;;7245918;32;20108;-60
2022/03/27 16:10:53;;;;;;;7.20;5.60;;;16.40;99.90;;;;;;7237836;32;20734;-59
2022/03/27 16:14:54;;;;;;;8.93;5.95;;;16.40;99.90;;;;;;7245591;32;20131;-60
2022/03/27 16:19:00;;;;;;;6.55;5.45;;;16.30;99.90;;;;;;7244506;32;20151;-62
2022/03/27 16:23:02;;;;;;;8.30;5.82;;;16.20;99.90;;;;;;7246291;32;20669;-63
2022/03/27 16:27:06;;;;;;;7.57;5.87;;;16.00;99.90;;;;;;7243188;32;20199;-59
2022/03/27 16:31:08;;;;;;;7.78;5.80;;;16.00;99.90;;;;;;7237580;32;20913;-60
2022/03/27 16:35:13;;;;;;;7.43;5.50;;;15.90;99.90;;;;;;7239233;32;20142;-59
2022/03/27 16:39:14;;;;;;;8.50;5.97;;;15.90;99.90;;;;;;7239109;32;20550;-60
2022/03/27 16:43:16;;;;;;;7.47;5.90;;;15.80;99.90;;;;;;7244326;32;20131;-63
2022/03/27 16:47:18;;;;;;;7.57;5.70;;;15.70;99.90;;;;;;7244869;32;20220;-60
2022/03/27 16:51:19;;;;;;;7.72;5.32;;;15.60;99.90;;;;;;7240361;32;20104;-59
2022/03/27 16:55:21;;;;;;;6.90;5.32;;;15.50;99.90;;;;;;7240211;32;20120;-60
2022/03/27 16:59:23;;;;;;;7.20;5.57;;;15.50;99.90;;;;;;7245083;32;20150;-59
2022/03/27 17:03:25;;;;;;;8.45;5.05;;;15.50;99.90;;;;;;7239867;32;20592;-59
2022/03/27 17:07:26;;;;;;;8.68;5.75;;;15.50;99.90;;;;;;7243264;32;20629;-60
2022/03/27 17:11:28;;;;;;;7.45;5.32;;;15.50;99.90;;;;;;7242327;32;20180;-61
2022/03/27 17:15:30;;;;;;;8.52;5.90;;;15.30;99.90;;;;;;7236405;32;20531;-59
2022/03/27 17:19:33;;;;;;;6.10;4.87;;;15.20;99.90;;;;;;7243657;32;20139;-60
2022/03/27 17:23:35;;;;;;;8.38;6.15;;;15.10;99.90;;;;;;7244175;32;20113;-59
2022/03/27 17:27:37;;;;;;;8.23;5.57;;;15.00;99.90;;;;;;7240702;32;20535;-58
2022/03/27 17:31:38;;;;;;;8.18;4.82;;;14.90;99.90;;;;;;7243193;32;20144;-64
2022/03/27 17:35:41;;;;;;;10.13;5.62;;;14.70;99.90;;;;;;7241048;32;20117;-59
2022/03/27 17:39:42;;;;;;;7.72;5.35;;;14.60;99.90;;;;;;7244825;32;20195;-59
2022/03/27 17:43:44;;;;;;;8.18;5.12;;;14.60;99.90;;;;;;7242179;32;20592;-59
2022/03/27 17:47:46;;;;;;;7.90;4.60;;;14.40;99.90;;;;;;7243124;32;20130;-62
2022/03/27 17:51:49;;;;;;;7.03;5.03;;;14.20;99.90;;;;;;7244183;32;20384;-55
2022/03/27 17:55:52;;;;;;;8.75;5.47;;;14.10;99.90;;;;;;7244426;32;20155;-58
2022/03/27 17:59:55;;;;;;;7.78;5.07;;;13.80;99.90;;;;;;7247812;32;20864;-59
2022/03/27 18:03:57;;;;;;;8.35;4.82;;;13.50;99.90;;;;;;7244255;32;20167;-61
2022/03/27 18:07:59;;;;;;;6.70;4.22;;;13.20;99.90;;;;;;7249539;32;20262;-62
2022/03/27 18:12:00;;;;;;;6.28;3.97;;;12.90;99.90;;;;;;7247878;32;20124;-59
2022/03/27 18:16:05;;;;;;;10.98;4.30;;;12.70;99.90;;;;;;7245880;32;20112;-58
2022/03/27 18:20:07;;;;;;;8.43;3.92;;;12.50;99.90;;;;;;7246876;32;20109;-59
2022/03/27 18:24:09;;;;;;;7.03;4.05;;;12.30;99.90;;;;;;7245547;32;20112;-59
2022/03/27 18:28:11;;;;;;;9.10;4.35;;;12.00;99.90;;;;;;7248256;32;20139;-60
2022/03/27 18:32:12;;;;;;;16.73;11.23;;;11.80;99.90;;;;;;7245248;32;20132;-59
2022/03/27 18:36:14;;;;;;;8.18;5.03;;;11.70;99.90;;;;;;7246695;32;20136;-59
2022/03/27 18:40:17;;;;;;;7.70;4.45;;;11.50;99.90;;;;;;7246527;32;20503;-59
2022/03/27 18:44:22;;;;;;;7.55;4.68;;;11.40;99.90;;;;;;7243801;32;20191;-61
2022/03/27 18:48:24;;;;;;;11.05;4.32;;;11.20;99.90;;;;;;7247933;32;20211;-60
2022/03/27 18:52:26;;;;;;;10.30;3.80;;;11.00;99.90;;;;;;7245498;32;20112;-63
2022/03/27 18:56:27;;;;;;;13.70;4.53;;;10.90;99.90;;;;;;7247633;32;20109;-61
2022/03/27 19:00:29;;;;;;;9.63;4.47;;;10.70;99.90;;;;;;7246286;32;20117;-62
2022/03/27 19:04:31;;;;;;;16.60;5.12;;;10.50;99.90;;;;;;7248297;32;20430;-60
2022/03/27 19:08:35;;;;;;;11.63;4.43;;;10.40;99.90;;;;;;7245799;32;20208;-64
2022/03/27 19:12:36;;;;;;;10.32;4.90;;;10.30;99.90;;;;;;7241575;32;20203;-62
2022/03/27 19:16:38;;;;;;;9.80;4.47;;;10.20;99.90;;;;;;7240548;32;20131;-62
2022/03/27 19:20:40;;;;;;;10.60;5.43;;;10.10;99.90;;;;;;7245281;32;20178;-63
2022/03/27 19:24:42;;;;;;;11.43;4.57;;;9.90;99.90;;;;;;7243254;32;20127;-60
2022/03/27 19:28:44;;;;;;;9.35;4.43;;;9.80;99.90;;;;;;7241688;32;20196;-62
2022/03/27 19:32:46;;;;;;;8.40;4.55;;;9.70;99.90;;;;;;7237833;32;20178;-62
2022/03/27 19:36:47;;;;;;;9.75;5.18;;;9.60;99.90;;;;;;7244859;32;20610;-61
2022/03/27 19:40:49;;;;;;;10.32;5.45;;;9.40;99.90;;;;;;7240839;32;20112;-63
2022/03/27 19:44:50;;;;;;;12.30;5.10;;;9.30;99.90;;;;;;7246693;32;20128;-63
2022/03/27 19:48:52;;;;;;;8.40;4.85;;;9.20;99.90;;;;;;7243937;32;20159;-64
2022/03/27 19:52:55;;;;;;;9.30;5.12;;;9.00;99.90;;;;;;7242990;32;20279;-62
2022/03/27 19:56:57;;;;;;;9.73;4.87;;;9.00;99.90;;;;;;7241920;32;20188;-63
2022/03/27 20:00:59;;;;;;;9.98;4.87;;;8.90;99.90;;;;;;7242714;32;20117;-62
2022/03/27 20:05:01;;;;;;;8.80;5.35;;;8.80;99.90;;;;;;7240439;32;20215;-60
2022/03/27 20:09:04;;;;;;;8.52;5.12;;;8.80;99.90;;;;;;7238331;32;20236;-61
2022/03/27 20:13:05;;;;;;;11.43;5.82;;;8.70;99.90;;;;;;7244299;32;20709;-61
2022/03/27 20:17:08;;;;;;;11.07;5.72;;;8.70;99.90;;;;;;7244622;32;20153;-61
2022/03/27 20:21:11;;;;;;;12.75;6.53;;;8.70;99.90;;;;;;7242232;32;20135;-63
2022/03/27 20:25:14;;;;;;;12.45;7.45;;;8.60;99.90;;;;;;7243243;32;20138;-61
2022/03/27 20:29:15;;;;;;;14.52;7.80;;;8.60;99.90;;;;;;7242504;32;20140;-63
2022/03/27 20:33:17;;;;;;;15.05;8.73;;;8.70;99.90;;;;;;7242918;32;20151;-62
2022/03/27 20:37:19;;;;;;;14.87;8.70;;;8.80;99.90;;;;;;7236602;32;20211;-62
2022/03/27 20:41:25;;;;;;;21.00;9.63;;;8.80;99.90;;;;;;7236052;32;20109;-59
2022/03/27 20:45:26;;;;;;;15.00;8.95;;;8.80;99.90;;;;;;7239840;32;20787;-60
2022/03/27 20:49:30;;;;;;;19.10;9.55;;;8.80;99.90;;;;;;7240158;32;20346;-60
2022/03/27 20:53:32;;;;;;;17.30;9.82;;;8.90;99.90;;;;;;7241721;32;20116;-60
2022/03/27 20:57:34;;;;;;;21.45;11.48;;;8.90;99.90;;;;;;7230379;32;20130;-61
2022/03/27 21:01:35;;;;;;;16.55;10.93;;;9.00;99.90;;;;;;7239737;32;20420;-60
2022/03/27 21:05:37;;;;;;;18.33;10.30;;;9.00;99.90;;;;;;7241662;32;20505;-60
2022/03/27 21:09:39;;;;;;;17.50;9.77;;;9.00;99.90;;;;;;7239971;32;20266;-61